Time;durP1;ratioP1;P1;durP2;ratioP2;P2;SDS_P1;SDS_P2;PMS_P1;PMS_P2;Temp;Humidity;BMP_temperature;BMP_pressure;BME280_temperature;BME280_humidity;BME280_pressure;Samples;Min_cycle;Max_cycle;Signal;HPM_P1;HPM_P2
2022/12/02 00:00:14;;;;;;;60.58;22.83;;;;;;;;;;4970258;28;20102;-68
2022/12/02 00:02:39;;;;;;;59.92;23.70;;;;;;;;;;4971094;28;20042;-68
2022/12/02 00:05:11;;;;;;;56.03;21.53;;;;;;;;;;4969786;28;20483;-68
2022/12/02 00:07:36;;;;;;;50.42;19.45;;;;;;;;;;4970537;28;20285;-68
2022/12/02 00:10:16;;;;;;;51.42;19.05;;;;;;;;;;4970206;28;20026;-68
2022/12/02 00:12:41;;;;;;;49.03;17.38;;;;;;;;;;5001608;28;20027;-68
2022/12/02 00:15:25;;;;;;;49.10;19.40;;;;;;;;;;4971535;28;20085;-68
2022/12/02 00:17:50;;;;;;;37.78;15.20;;;;;;;;;;4972872;28;20304;-68
2022/12/02 00:20:15;;;;;;;46.50;16.90;;;;;;;;;;4969814;28;20020;-67
2022/12/02 00:22:40;;;;;;;42.17;18.92;;;;;;;;;;4970424;28;20278;-69
2022/12/02 00:25:06;;;;;;;52.00;19.13;;;;;;;;;;4971234;28;20105;-68
2022/12/02 00:27:31;;;;;;;46.88;19.05;;;;;;;;;;4970652;28;20018;-68
2022/12/02 00:29:56;;;;;;;43.10;17.70;;;;;;;;;;4970377;28;20022;-68
2022/12/02 00:32:21;;;;;;;37.13;15.53;;;;;;;;;;4968752;28;20282;-68
2022/12/02 00:34:46;;;;;;;38.80;15.83;;;;;;;;;;4967280;28;20274;-68
2022/12/02 00:37:12;;;;;;;44.42;16.80;;;;;;;;;;4971396;28;20317;-68
2022/12/02 00:39:37;;;;;;;36.80;16.13;;;;;;;;;;4967829;28;20026;-68
2022/12/02 00:42:02;;;;;;;40.53;16.37;;;;;;;;;;4969776;28;20278;-68
2022/12/02 00:47:11;;;;;;;41.00;16.35;;;;;;;;;;4968712;28;20037;-68
2022/12/02 00:49:36;;;;;;;46.23;15.07;;;;;;;;;;4969893;28;20022;-68
2022/12/02 00:52:01;;;;;;;40.67;16.50;;;;;;;;;;4970168;28;20372;-69
2022/12/02 00:54:26;;;;;;;43.75;16.85;;;;;;;;;;4964735;28;20069;-68
2022/12/02 00:56:51;;;;;;;43.90;17.70;;;;;;;;;;4966962;28;20090;-68
2022/12/02 00:59:17;;;;;;;38.87;16.50;;;;;;;;;;4969044;28;20019;-68
2022/12/02 01:01:43;;;;;;;38.03;14.52;;;;;;;;;;4968815;28;20755;-68
2022/12/02 01:04:09;;;;;;;43.55;16.13;;;;;;;;;;4971118;28;20019;-68
2022/12/02 01:06:34;;;;;;;39.50;16.63;;;;;;;;;;4970858;28;20491;-68
2022/12/02 01:08:59;;;;;;;36.07;14.63;;;;;;;;;;4974409;28;20033;-68
2022/12/02 01:11:24;;;;;;;39.83;15.90;;;;;;;;;;4970139;28;20274;-68
2022/12/02 01:13:49;;;;;;;39.22;15.60;;;;;;;;;;4966749;28;20046;-68
2022/12/02 01:16:15;;;;;;;37.25;15.45;;;;;;;;;;4969549;28;20395;-68
2022/12/02 01:18:40;;;;;;;36.90;15.70;;;;;;;;;;4968919;28;20042;-68
2022/12/02 01:21:05;;;;;;;39.03;15.02;;;;;;;;;;4971094;28;20018;-69
2022/12/02 01:23:30;;;;;;;40.30;16.13;;;;;;;;;;4973490;28;20694;-69
2022/12/02 01:25:56;;;;;;;38.08;16.60;;;;;;;;;;4972953;28;20346;-69
2022/12/02 01:28:21;;;;;;;39.47;15.35;;;;;;;;;;4973961;28;20019;-68
2022/12/02 01:30:46;;;;;;;43.67;16.30;;;;;;;;;;4973053;28;20018;-68
2022/12/02 01:33:12;;;;;;;41.90;15.13;;;;;;;;;;4974475;28;20410;-68
2022/12/02 01:35:37;;;;;;;41.13;15.68;;;;;;;;;;4973734;28;20023;-68
2022/12/02 01:38:02;;;;;;;39.10;14.97;;;;;;;;;;4973002;28;20073;-68
2022/12/02 01:40:28;;;;;;;40.05;15.70;;;;;;;;;;4969723;28;20277;-68
2022/12/02 01:42:53;;;;;;;43.38;16.85;;;;;;;;;;4973091;28;20027;-68
2022/12/02 01:45:19;;;;;;;42.83;16.52;;;;;;;;;;4973782;28;20074;-69
2022/12/02 01:47:44;;;;;;;39.83;15.70;;;;;;;;;;4972427;28;20030;-69
2022/12/02 01:50:12;;;;;;;39.58;15.60;;;;;;;;;;4973052;28;20505;-68
2022/12/02 01:52:37;;;;;;;45.55;17.17;;;;;;;;;;4975530;28;20068;-68
2022/12/02 01:55:03;;;;;;;43.65;15.98;;;;;;;;;;4973140;28;20023;-68
2022/12/02 01:57:29;;;;;;;38.95;15.13;;;;;;;;;;4974877;28;20014;-68
2022/12/02 01:59:54;;;;;;;44.83;17.27;;;;;;;;;;4975177;28;20477;-68
2022/12/02 02:02:23;;;;;;;43.22;16.23;;;;;;;;;;4971904;28;20106;-69
2022/12/02 02:04:49;;;;;;;41.05;16.23;;;;;;;;;;4975178;28;20377;-69
2022/12/02 02:07:14;;;;;;;37.95;15.43;;;;;;;;;;4972627;28;20049;-69
2022/12/02 02:09:39;;;;;;;46.50;16.17;;;;;;;;;;4978216;28;20083;-68
2022/12/02 02:12:04;;;;;;;42.17;15.90;;;;;;;;;;4974686;28;20149;-69
2022/12/02 02:14:29;;;;;;;46.50;17.92;;;;;;;;;;4973032;28;20758;-69
2022/12/02 02:16:54;;;;;;;44.35;17.55;;;;;;;;;;4976589;28;20154;-68
2022/12/02 02:19:20;;;;;;;42.80;16.70;;;;;;;;;;4976056;28;20105;-69
2022/12/02 02:21:48;;;;;;;45.17;16.15;;;;;;;;;;4972831;28;20630;-69
2022/12/02 02:24:13;;;;;;;46.80;17.52;;;;;;;;;;4974503;28;20019;-68
2022/12/02 02:26:38;;;;;;;47.17;18.00;;;;;;;;;;4973386;28;20030;-69
2022/12/02 02:29:03;;;;;;;46.40;17.30;;;;;;;;;;4971378;28;20018;-68
2022/12/02 02:31:28;;;;;;;45.47;18.85;;;;;;;;;;4970759;28;20479;-68
2022/12/02 02:33:54;;;;;;;45.97;17.48;;;;;;;;;;4972213;28;20045;-68
2022/12/02 02:36:19;;;;;;;44.88;16.73;;;;;;;;;;4971701;28;20122;-69
2022/12/02 02:38:45;;;;;;;47.35;17.20;;;;;;;;;;4972707;28;20403;-68
2022/12/02 02:41:10;;;;;;;44.25;16.80;;;;;;;;;;4972485;28;20025;-68
2022/12/02 02:43:36;;;;;;;43.47;17.13;;;;;;;;;;4970842;28;20014;-68
2022/12/02 02:46:02;;;;;;;52.83;19.42;;;;;;;;;;4972167;28;20085;-68
2022/12/02 02:48:28;;;;;;;43.92;18.23;;;;;;;;;;4971312;28;20495;-68
2022/12/02 02:50:53;;;;;;;51.50;18.40;;;;;;;;;;4970522;28;20033;-68
2022/12/02 02:53:20;;;;;;;46.42;19.15;;;;;;;;;;4972030;28;20019;-68
2022/12/02 02:55:46;;;;;;;48.22;19.55;;;;;;;;;;4972845;28;20030;-68
2022/12/02 02:58:13;;;;;;;46.90;18.85;;;;;;;;;;4972164;28;20031;-68
2022/12/02 03:00:43;;;;;;;50.00;19.08;;;;;;;;;;4972417;28;20027;-68
2022/12/02 03:03:08;;;;;;;47.63;18.20;;;;;;;;;;4971012;28;20077;-68
2022/12/02 03:05:34;;;;;;;51.22;19.88;;;;;;;;;;4971994;28;20023;-68
2022/12/02 03:07:59;;;;;;;53.03;20.17;;;;;;;;;;4971854;28;20030;-68
2022/12/02 03:10:24;;;;;;;53.90;20.15;;;;;;;;;;4972543;28;20022;-69
2022/12/02 03:12:52;;;;;;;50.63;18.67;;;;;;;;;;4968543;28;20553;-68
2022/12/02 03:15:18;;;;;;;54.08;20.55;;;;;;;;;;4974168;28;20019;-68
2022/12/02 03:17:43;;;;;;;52.13;21.42;;;;;;;;;;4970906;28;20030;-68
2022/12/02 03:20:08;;;;;;;61.57;20.90;;;;;;;;;;4972527;28;20023;-69
2022/12/02 03:22:33;;;;;;;65.00;22.10;;;;;;;;;;4971273;28;20317;-68
2022/12/02 03:24:58;;;;;;;57.57;19.47;;;;;;;;;;4976525;28;20370;-69
2022/12/02 03:27:24;;;;;;;50.25;19.13;;;;;;;;;;4971433;28;20321;-68
2022/12/02 03:29:50;;;;;;;55.72;20.30;;;;;;;;;;4972463;28;20255;-68
2022/12/02 03:32:15;;;;;;;55.28;20.60;;;;;;;;;;4972558;28;20027;-69
2022/12/02 03:34:41;;;;;;;54.63;20.25;;;;;;;;;;4971763;28;20033;-68
2022/12/02 03:37:06;;;;;;;53.05;19.38;;;;;;;;;;4969384;28;20058;-68
2022/12/02 03:39:31;;;;;;;52.45;19.42;;;;;;;;;;4972514;28;20018;-69
2022/12/02 03:41:56;;;;;;;54.25;20.00;;;;;;;;;;4970809;28;20027;-69
2022/12/02 03:44:22;;;;;;;58.40;19.70;;;;;;;;;;4973122;28;20076;-68
2022/12/02 03:46:47;;;;;;;51.17;18.05;;;;;;;;;;4970254;28;20027;-68
2022/12/02 03:49:13;;;;;;;60.95;20.50;;;;;;;;;;4971627;28;20026;-68
2022/12/02 03:51:39;;;;;;;61.92;21.75;;;;;;;;;;4969578;28;20062;-68
2022/12/02 03:54:04;;;;;;;60.03;21.65;;;;;;;;;;4971485;28;20304;-68
2022/12/02 03:56:34;;;;;;;59.33;19.98;;;;;;;;;;4969036;28;20508;-68
2022/12/02 03:58:59;;;;;;;50.72;20.83;;;;;;;;;;4969782;28;20034;-68
2022/12/02 04:01:25;;;;;;;62.83;21.65;;;;;;;;;;4970171;28;20054;-68
2022/12/02 04:03:50;;;;;;;55.13;19.98;;;;;;;;;;4970164;28;20388;-69
2022/12/02 04:06:15;;;;;;;50.20;18.83;;;;;;;;;;4967703;28;20054;-68
2022/12/02 04:08:40;;;;;;;60.40;20.48;;;;;;;;;;4970551;28;20293;-69
2022/12/02 04:11:05;;;;;;;60.10;20.65;;;;;;;;;;4970024;28;20517;-69
2022/12/02 04:13:31;;;;;;;61.97;21.58;;;;;;;;;;4967557;28;20034;-69
2022/12/02 04:15:56;;;;;;;66.13;21.92;;;;;;;;;;4961655;28;20050;-68
2022/12/02 04:18:21;;;;;;;59.38;20.10;;;;;;;;;;4965996;28;20150;-68
2022/12/02 04:20:46;;;;;;;53.72;19.95;;;;;;;;;;4969011;28;20033;-68
2022/12/02 04:23:12;;;;;;;60.28;20.92;;;;;;;;;;4970077;28;20510;-68
2022/12/02 04:25:37;;;;;;;55.83;20.17;;;;;;;;;;4968405;28;20019;-69
2022/12/02 04:28:02;;;;;;;58.65;21.83;;;;;;;;;;4969810;28;20030;-68
2022/12/02 04:30:27;;;;;;;55.42;20.45;;;;;;;;;;4970966;28;20031;-69
2022/12/02 04:32:52;;;;;;;58.22;19.98;;;;;;;;;;4968122;28;20076;-68
2022/12/02 04:35:18;;;;;;;65.23;18.70;;;;;;;;;;4970488;28;20444;-69
2022/12/02 04:37:43;;;;;;;44.22;17.52;;;;;;;;;;4969240;28;20293;-69
2022/12/02 04:40:08;;;;;;;59.83;20.95;;;;;;;;;;4968557;28;20089;-68
2022/12/02 04:42:33;;;;;;;50.55;18.90;;;;;;;;;;4969681;28;20015;-68
2022/12/02 04:44:59;;;;;;;65.13;20.27;;;;;;;;;;4968911;28;20081;-68
2022/12/02 04:47:24;;;;;;;55.00;19.37;;;;;;;;;;4967453;28;20373;-68
2022/12/02 04:49:49;;;;;;;52.78;19.23;;;;;;;;;;4969095;28;20289;-68
2022/12/02 04:52:14;;;;;;;56.22;19.13;;;;;;;;;;4972795;28;20053;-68
2022/12/02 04:54:39;;;;;;;55.90;19.88;;;;;;;;;;4973040;28;20027;-69
2022/12/02 04:57:04;;;;;;;55.97;20.35;;;;;;;;;;4980717;28;20052;-69
2022/12/02 04:59:30;;;;;;;54.83;19.95;;;;;;;;;;4979537;28;20027;-69
2022/12/02 05:01:55;;;;;;;62.50;21.70;;;;;;;;;;4975527;28;20041;-68
2022/12/02 05:04:20;;;;;;;59.20;21.60;;;;;;;;;;4974290;28;20019;-69
2022/12/02 05:06:45;;;;;;;67.87;21.93;;;;;;;;;;4983271;28;20286;-68
2022/12/02 05:09:10;;;;;;;63.17;20.57;;;;;;;;;;4977358;28;20277;-68
2022/12/02 05:11:35;;;;;;;58.20;20.27;;;;;;;;;;4981088;28;20321;-68
2022/12/02 05:14:01;;;;;;;59.83;20.93;;;;;;;;;;4982672;28;20305;-68
2022/12/02 05:16:26;;;;;;;69.13;23.03;;;;;;;;;;4975098;28;20297;-69
2022/12/02 05:18:51;;;;;;;60.45;20.75;;;;;;;;;;4972957;28;20278;-68
2022/12/02 05:21:16;;;;;;;70.50;22.10;;;;;;;;;;4979490;28;20110;-68
2022/12/02 05:23:41;;;;;;;76.40;22.80;;;;;;;;;;4980182;28;20284;-68
2022/12/02 05:26:06;;;;;;;60.03;21.50;;;;;;;;;;4981910;28;20660;-68
2022/12/02 05:28:32;;;;;;;60.10;19.67;;;;;;;;;;4980268;28;20076;-68
2022/12/02 05:30:57;;;;;;;71.00;22.42;;;;;;;;;;4977811;28;20410;-68
2022/12/02 05:33:22;;;;;;;68.80;23.63;;;;;;;;;;4988032;28;20025;-68
2022/12/02 05:35:47;;;;;;;69.10;20.97;;;;;;;;;;4984474;28;20035;-68
2022/12/02 05:38:12;;;;;;;65.53;22.50;;;;;;;;;;4982617;28;20270;-68
2022/12/02 05:40:37;;;;;;;69.50;23.37;;;;;;;;;;4981558;28;20019;-68
2022/12/02 05:43:15;;;;;;;66.03;23.17;;;;;;;;;;4984331;28;20349;-68
2022/12/02 05:45:40;;;;;;;71.55;22.67;;;;;;;;;;4981916;28;20285;-68
2022/12/02 05:48:09;;;;;;;75.63;23.88;;;;;;;;;;4982987;28;20041;-67
2022/12/02 05:50:35;;;;;;;69.23;22.47;;;;;;;;;;4978668;28;20026;-68
2022/12/02 05:53:00;;;;;;;76.13;24.02;;;;;;;;;;4980172;28;20037;-68
2022/12/02 05:55:26;;;;;;;69.22;24.45;;;;;;;;;;4983096;28;20033;-68
2022/12/02 05:57:53;;;;;;;72.80;23.73;;;;;;;;;;4984634;28;20114;-68
2022/12/02 06:00:22;;;;;;;70.18;24.05;;;;;;;;;;4967753;28;20042;-68
2022/12/02 06:02:55;;;;;;;78.43;24.67;;;;;;;;;;4980397;28;20026;-68
2022/12/02 06:05:25;;;;;;;83.20;25.55;;;;;;;;;;4978622;28;20026;-68
2022/12/02 06:07:52;;;;;;;85.72;25.35;;;;;;;;;;4984353;28;20018;-68
2022/12/02 06:10:22;;;;;;;74.63;23.88;;;;;;;;;;5003061;28;20479;-68
2022/12/02 06:12:47;;;;;;;84.38;25.27;;;;;;;;;;4977000;28;20505;-68
2022/12/02 06:15:13;;;;;;;82.78;26.92;;;;;;;;;;4979578;28;20035;-68
2022/12/02 06:17:38;;;;;;;84.45;25.70;;;;;;;;;;4978764;28;20050;-68
2022/12/02 06:20:04;;;;;;;79.65;25.42;;;;;;;;;;4972131;28;20558;-69
2022/12/02 06:22:30;;;;;;;62.95;21.80;;;;;;;;;;4972095;28;20106;-68
2022/12/02 06:24:58;;;;;;;78.78;25.77;;;;;;;;;;4970322;28;20027;-68
2022/12/02 06:27:23;;;;;;;83.15;25.67;;;;;;;;;;4971776;28;20033;-68
2022/12/02 06:29:49;;;;;;;75.55;24.13;;;;;;;;;;4968056;28;20027;-68
2022/12/02 06:32:18;;;;;;;89.70;24.88;;;;;;;;;;4974820;28;20290;-68
2022/12/02 06:34:43;;;;;;;76.00;25.58;;;;;;;;;;4967925;28;20026;-68
2022/12/02 06:37:13;;;;;;;82.15;25.23;;;;;;;;;;4972693;28;20521;-68
2022/12/02 06:39:39;;;;;;;69.35;24.27;;;;;;;;;;4969840;28;20029;-67
2022/12/02 06:42:30;;;;;;;88.93;26.38;;;;;;;;;;4966288;28;22032;-68
2022/12/02 06:45:06;;;;;;;82.78;24.92;;;;;;;;;;4965049;28;20042;-68
2022/12/02 06:47:32;;;;;;;80.93;24.35;;;;;;;;;;4975017;28;20112;-69
2022/12/02 06:50:00;;;;;;;85.75;25.83;;;;;;;;;;4968188;28;20057;-67
2022/12/02 06:52:25;;;;;;;88.22;24.95;;;;;;;;;;4968732;28;20037;-68
2022/12/02 06:54:51;;;;;;;77.27;24.23;;;;;;;;;;4972724;28;20034;-69
2022/12/02 06:57:18;;;;;;;82.90;23.05;;;;;;;;;;4968511;28;20290;-69
2022/12/02 06:59:46;;;;;;;82.47;23.73;;;;;;;;;;4965332;28;20023;-68
2022/12/02 07:02:30;;;;;;;93.28;26.63;;;;;;;;;;4969211;28;20093;-70
2022/12/02 07:04:55;;;;;;;79.18;26.15;;;;;;;;;;4971619;28;20030;-68
2022/12/02 07:07:27;;;;;;;86.55;26.88;;;;;;;;;;4968412;28;20035;-68
2022/12/02 07:09:57;;;;;;;90.20;26.98;;;;;;;;;;4968841;28;20035;-68
2022/12/02 07:12:24;;;;;;;80.37;26.20;;;;;;;;;;4974135;28;20019;-68
2022/12/02 07:14:49;;;;;;;93.93;26.55;;;;;;;;;;4978555;28;20282;-68
2022/12/02 07:17:23;;;;;;;86.60;26.70;;;;;;;;;;4976635;28;20026;-68
2022/12/02 07:19:52;;;;;;;89.47;28.88;;;;;;;;;;4977233;28;20381;-69
2022/12/02 07:22:19;;;;;;;97.17;27.53;;;;;;;;;;4977549;28;20018;-68
2022/12/02 07:24:50;;;;;;;79.68;26.55;;;;;;;;;;4974207;28;20742;-68
2022/12/02 07:27:20;;;;;;;92.25;28.63;;;;;;;;;;4974252;28;20085;-68
2022/12/02 07:29:46;;;;;;;93.47;25.63;;;;;;;;;;4967329;28;20041;-69
2022/12/02 07:32:11;;;;;;;82.00;25.70;;;;;;;;;;4974148;28;20472;-68
2022/12/02 07:34:36;;;;;;;97.05;29.50;;;;;;;;;;4974403;28;20627;-69
2022/12/02 07:37:01;;;;;;;92.53;25.70;;;;;;;;;;4984253;28;20027;-68
2022/12/02 07:39:26;;;;;;;92.63;26.75;;;;;;;;;;4970272;28;20286;-69
2022/12/02 07:41:52;;;;;;;91.53;26.90;;;;;;;;;;4971974;28;20026;-68
2022/12/02 07:44:17;;;;;;;97.32;29.50;;;;;;;;;;4980163;28;20081;-68
2022/12/02 07:46:42;;;;;;;110.15;29.25;;;;;;;;;;4976918;28;20030;-68
2022/12/02 07:49:07;;;;;;;107.35;29.70;;;;;;;;;;4978213;28;20130;-69
2022/12/02 07:51:32;;;;;;;102.97;28.38;;;;;;;;;;4974898;28;20531;-68
2022/12/02 07:53:58;;;;;;;98.88;29.23;;;;;;;;;;4970852;28;20042;-69
2022/12/02 07:56:23;;;;;;;101.05;29.80;;;;;;;;;;4973218;28;20030;-69
2022/12/02 07:58:48;;;;;;;99.25;28.15;;;;;;;;;;4968863;28;20037;-69
2022/12/02 08:01:13;;;;;;;97.07;28.30;;;;;;;;;;4974942;28;20015;-68
2022/12/02 08:03:39;;;;;;;114.33;30.87;;;;;;;;;;4970618;28;20023;-68
2022/12/02 08:06:04;;;;;;;113.75;31.52;;;;;;;;;;4967500;28;20272;-68
2022/12/02 08:08:29;;;;;;;102.97;29.27;;;;;;;;;;4975175;28;20097;-68
2022/12/02 08:10:54;;;;;;;112.28;32.33;;;;;;;;;;4977471;28;20023;-68
2022/12/02 08:13:19;;;;;;;112.10;30.05;;;;;;;;;;4983248;28;20030;-67
2022/12/02 08:15:45;;;;;;;108.13;31.38;;;;;;;;;;4976956;28;20018;-68
2022/12/02 08:18:10;;;;;;;111.57;29.83;;;;;;;;;;4979906;28;20038;-68
2022/12/02 08:20:35;;;;;;;108.77;28.50;;;;;;;;;;4969574;28;20364;-68
2022/12/02 08:23:00;;;;;;;101.93;31.58;;;;;;;;;;4976393;28;20274;-68
2022/12/02 08:25:25;;;;;;;91.47;29.03;;;;;;;;;;4979834;28;20010;-68
2022/12/02 08:27:50;;;;;;;108.33;28.50;;;;;;;;;;4977587;28;20296;-68
2022/12/02 08:30:16;;;;;;;98.73;28.10;;;;;;;;;;4972750;28;20289;-68
2022/12/02 08:32:41;;;;;;;94.50;27.77;;;;;;;;;;4971813;28;20791;-67
2022/12/02 08:35:07;;;;;;;100.40;26.67;;;;;;;;;;4974353;28;20024;-67
2022/12/02 08:37:32;;;;;;;107.88;27.13;;;;;;;;;;4972242;28;20028;-68
2022/12/02 08:39:57;;;;;;;99.55;26.55;;;;;;;;;;4973154;28;20070;-68
2022/12/02 08:42:22;;;;;;;92.15;26.70;;;;;;;;;;4978101;28;20422;-68
2022/12/02 08:44:48;;;;;;;97.70;26.92;;;;;;;;;;4973410;28;20438;-68
2022/12/02 08:47:13;;;;;;;106.95;28.38;;;;;;;;;;4969493;28;20029;-68
2022/12/02 08:49:38;;;;;;;106.20;26.93;;;;;;;;;;4967269;28;20015;-68
2022/12/02 08:52:03;;;;;;;104.95;26.92;;;;;;;;;;4976461;28;20597;-68
2022/12/02 08:54:28;;;;;;;103.90;26.63;;;;;;;;;;4975670;28;20023;-68
2022/12/02 08:56:55;;;;;;;107.72;29.98;;;;;;;;;;4975859;28;20031;-68
2022/12/02 08:59:20;;;;;;;100.60;29.48;;;;;;;;;;4973454;28;20122;-68
2022/12/02 09:01:45;;;;;;;101.75;29.02;;;;;;;;;;4972557;28;20117;-68
2022/12/02 09:04:11;;;;;;;119.77;30.23;;;;;;;;;;4980509;28;20391;-68
2022/12/02 09:06:36;;;;;;;112.40;29.58;;;;;;;;;;4969239;28;20286;-68
2022/12/02 09:09:01;;;;;;;102.15;29.40;;;;;;;;;;4978264;28;20030;-68
2022/12/02 09:11:26;;;;;;;119.05;30.55;;;;;;;;;;4977965;28;20030;-68
2022/12/02 09:13:51;;;;;;;109.67;28.53;;;;;;;;;;4973539;28;20023;-68
2022/12/02 09:16:17;;;;;;;108.30;27.40;;;;;;;;;;4974257;28;20733;-68
2022/12/02 09:18:42;;;;;;;106.25;27.20;;;;;;;;;;4977928;28;20015;-68
2022/12/02 09:21:07;;;;;;;111.60;31.45;;;;;;;;;;4976747;28;20022;-68
2022/12/02 09:23:32;;;;;;;100.77;25.60;;;;;;;;;;4980836;28;20376;-68
2022/12/02 09:25:57;;;;;;;91.13;25.02;;;;;;;;;;4980064;28;20315;-68
2022/12/02 09:28:22;;;;;;;103.43;27.43;;;;;;;;;;4972061;28;20057;-68
2022/12/02 09:30:48;;;;;;;94.25;26.17;;;;;;;;;;4972454;28;20320;-68
2022/12/02 09:33:13;;;;;;;88.10;26.30;;;;;;;;;;4976256;28;20464;-68
2022/12/02 09:35:38;;;;;;;96.43;27.53;;;;;;;;;;4980772;28;20036;-68
2022/12/02 09:38:03;;;;;;;86.03;26.23;;;;;;;;;;4975967;28;20294;-68
2022/12/02 09:40:30;;;;;;;84.32;25.08;;;;;;;;;;4976754;28;20034;-68
2022/12/02 09:42:55;;;;;;;101.45;28.23;;;;;;;;;;4996995;28;20500;-68
2022/12/02 09:45:21;;;;;;;111.93;29.92;;;;;;;;;;4977220;28;20023;-68
2022/12/02 09:47:46;;;;;;;92.78;27.33;;;;;;;;;;4977178;28;20447;-68
2022/12/02 09:50:14;;;;;;;83.85;26.15;;;;;;;;;;4983403;28;20101;-68
2022/12/02 09:52:39;;;;;;;96.72;28.42;;;;;;;;;;4980322;28;20430;-68
2022/12/02 09:55:10;;;;;;;90.57;26.60;;;;;;;;;;4973532;28;20031;-68
2022/12/02 09:57:36;;;;;;;88.20;27.75;;;;;;;;;;4972001;28;20041;-68
2022/12/02 10:00:06;;;;;;;80.38;26.08;;;;;;;;;;4976104;28;20018;-67
2022/12/02 10:02:36;;;;;;;85.13;24.73;;;;;;;;;;4970724;28;20023;-68
2022/12/02 10:05:03;;;;;;;93.22;27.55;;;;;;;;;;4980636;28;20050;-68
2022/12/02 10:07:29;;;;;;;79.50;25.25;;;;;;;;;;4981206;28;20026;-68
2022/12/02 10:09:54;;;;;;;81.68;26.70;;;;;;;;;;4973672;28;20058;-68
2022/12/02 10:12:19;;;;;;;77.68;27.80;;;;;;;;;;4981708;28;20026;-67
2022/12/02 10:14:47;;;;;;;88.55;28.42;;;;;;;;;;4977425;28;20077;-67
2022/12/02 10:17:14;;;;;;;79.45;27.13;;;;;;;;;;4974075;28;20190;-67
2022/12/02 10:19:40;;;;;;;74.22;25.92;;;;;;;;;;4985464;28;20054;-68
2022/12/02 10:22:11;;;;;;;86.47;27.48;;;;;;;;;;4980692;28;20559;-68
2022/12/02 10:24:37;;;;;;;93.40;26.52;;;;;;;;;;4967398;28;20026;-67
2022/12/02 10:27:02;;;;;;;76.28;26.60;;;;;;;;;;4967311;28;20480;-68
2022/12/02 10:29:28;;;;;;;83.55;25.60;;;;;;;;;;4979739;28;20026;-68
2022/12/02 10:31:55;;;;;;;77.78;24.80;;;;;;;;;;4974091;28;20038;-68
2022/12/02 10:34:20;;;;;;;78.35;25.00;;;;;;;;;;4984803;28;20046;-68
2022/12/02 10:36:46;;;;;;;70.40;24.70;;;;;;;;;;4975842;28;20130;-68
2022/12/02 10:39:23;;;;;;;73.75;24.52;;;;;;;;;;4979690;28;20022;-68
2022/12/02 10:41:51;;;;;;;71.90;24.98;;;;;;;;;;4970798;28;20055;-68
2022/12/02 10:44:17;;;;;;;79.15;24.13;;;;;;;;;;4999784;28;20510;-68
2022/12/02 10:46:43;;;;;;;75.85;23.67;;;;;;;;;;4970667;28;20027;-68
2022/12/02 10:49:14;;;;;;;70.88;22.02;;;;;;;;;;4972427;28;20113;-68
2022/12/02 10:51:39;;;;;;;68.07;22.92;;;;;;;;;;4971874;28;20026;-68
2022/12/02 10:54:05;;;;;;;68.95;22.92;;;;;;;;;;4975388;28;20041;-68
2022/12/02 10:56:30;;;;;;;68.95;23.48;;;;;;;;;;4974539;28;20510;-69
2022/12/02 10:58:55;;;;;;;70.93;23.30;;;;;;;;;;4981606;28;20109;-69
2022/12/02 11:01:21;;;;;;;69.20;25.25;;;;;;;;;;4977319;28;20328;-68
2022/12/02 11:03:46;;;;;;;66.03;23.15;;;;;;;;;;4976322;28;20026;-68
2022/12/02 11:06:13;;;;;;;65.30;23.00;;;;;;;;;;4973294;28;20768;-69
2022/12/02 11:08:41;;;;;;;60.88;22.23;;;;;;;;;;4965408;28;20022;-68
2022/12/02 11:11:13;;;;;;;61.15;22.50;;;;;;;;;;4969571;28;20050;-68
2022/12/02 11:13:51;;;;;;;61.65;23.17;;;;;;;;;;4965333;28;20025;-68
2022/12/02 11:16:28;;;;;;;61.70;22.08;;;;;;;;;;4970735;28;20431;-69
2022/12/02 11:19:21;;;;;;;72.90;23.60;;;;;;;;;;4970720;28;20019;-69
2022/12/02 11:21:46;;;;;;;63.88;22.38;;;;;;;;;;4981537;28;20018;-69
2022/12/02 11:24:21;;;;;;;66.57;23.67;;;;;;;;;;4975271;28;20023;-69
2022/12/02 11:26:58;;;;;;;65.22;24.20;;;;;;;;;;4978963;28;20280;-68
2022/12/02 11:29:23;;;;;;;61.05;22.13;;;;;;;;;;4962636;28;20022;-68
2022/12/02 11:32:11;;;;;;;57.13;22.85;;;;;;;;;;4977687;28;20046;-69
2022/12/02 11:34:51;;;;;;;55.63;21.83;;;;;;;;;;4927002;28;20030;-69
2022/12/02 11:37:25;;;;;;;60.42;21.95;;;;;;;;;;4978621;28;20105;-68
2022/12/02 11:39:51;;;;;;;59.10;22.50;;;;;;;;;;4980094;28;20517;-69
2022/12/02 11:42:29;;;;;;;60.10;25.70;;;;;;;;;;4982375;28;20097;-69
2022/12/02 11:45:10;;;;;;;60.45;25.05;;;;;;;;;;4967469;28;20034;-68
2022/12/02 11:47:35;;;;;;;68.10;24.70;;;;;;;;;;4974079;28;20042;-68
2022/12/02 11:50:16;;;;;;;62.05;23.73;;;;;;;;;;4973108;28;20023;-68
2022/12/02 11:52:41;;;;;;;;;;;;;;;;;;4991862;28;20035;-69
2022/12/02 11:55:12;;;;;;;63.40;22.25;;;;;;;;;;4976113;28;19910;-68
2022/12/02 11:57:57;;;;;;;56.22;21.85;;;;;;;;;;4973316;28;20353;-68
2022/12/02 12:00:24;;;;;;;63.30;23.77;;;;;;;;;;4976133;28;20021;-68
2022/12/02 12:03:04;;;;;;;66.35;24.88;;;;;;;;;;4973739;28;20029;-68
2022/12/02 12:05:30;;;;;;;54.80;22.77;;;;;;;;;;4970147;28;20498;-68
2022/12/02 12:07:55;;;;;;;55.08;25.98;;;;;;;;;;4967724;28;20026;-69
2022/12/02 12:10:30;;;;;;;55.60;25.07;;;;;;;;;;4981840;28;20030;-68
2022/12/02 12:13:28;;;;;;;59.40;24.67;;;;;;;;;;4973595;28;20285;-68
2022/12/02 12:15:57;;;;;;;62.95;24.15;;;;;;;;;;4927703;28;20034;-68
2022/12/02 12:18:42;;;;;;;54.40;21.98;;;;;;;;;;4976085;28;20463;-68
2022/12/02 12:21:07;;;;;;;52.50;22.85;;;;;;;;;;4967330;28;20049;-68
2022/12/02 12:23:37;;;;;;;59.85;21.98;;;;;;;;;;4977126;28;20523;-68
2022/12/02 12:26:03;;;;;;;51.63;24.15;;;;;;;;;;4970445;28;20019;-68
2022/12/02 12:28:29;;;;;;;49.58;21.42;;;;;;;;;;4974332;28;20097;-68
2022/12/02 12:30:54;;;;;;;51.65;21.83;;;;;;;;;;4972173;28;20039;-68
2022/12/02 12:33:20;;;;;;;54.05;22.38;;;;;;;;;;4975994;28;20105;-68
2022/12/02 12:35:45;;;;;;;52.55;21.35;;;;;;;;;;4964683;28;20644;-68
2022/12/02 12:38:10;;;;;;;51.72;22.00;;;;;;;;;;4980583;28;20450;-68
2022/12/02 12:40:35;;;;;;;53.63;22.40;;;;;;;;;;4977011;28;20086;-69
2022/12/02 12:43:00;;;;;;;50.10;22.70;;;;;;;;;;4977900;28;20843;-69
2022/12/02 12:45:26;;;;;;;59.90;21.70;;;;;;;;;;4975956;28;20019;-69
2022/12/02 12:47:51;;;;;;;50.60;22.63;;;;;;;;;;4970591;28;20365;-69
2022/12/02 12:50:16;;;;;;;48.35;21.73;;;;;;;;;;4972498;28;20362;-69
2022/12/02 12:52:41;;;;;;;50.22;21.65;;;;;;;;;;4974335;28;20079;-69
2022/12/02 12:55:06;;;;;;;47.23;20.30;;;;;;;;;;4969271;28;20022;-69
2022/12/02 12:57:32;;;;;;;51.65;24.25;;;;;;;;;;4974023;28;20824;-69
2022/12/02 12:59:57;;;;;;;52.63;20.70;;;;;;;;;;4978993;28;20058;-69
2022/12/02 13:02:22;;;;;;;53.10;24.52;;;;;;;;;;4980182;28;20257;-69
2022/12/02 13:04:47;;;;;;;50.60;22.15;;;;;;;;;;4973645;28;20488;-69
2022/12/02 13:07:12;;;;;;;48.67;22.90;;;;;;;;;;4976628;28;20023;-69
2022/12/02 13:09:38;;;;;;;49.72;21.55;;;;;;;;;;4980176;28;20312;-69
2022/12/02 13:12:03;;;;;;;52.37;21.77;;;;;;;;;;4979986;28;20038;-69
2022/12/02 13:14:28;;;;;;;50.28;21.02;;;;;;;;;;4974481;28;20281;-69
2022/12/02 13:16:53;;;;;;;44.43;19.30;;;;;;;;;;4969714;28;20041;-69
2022/12/02 13:19:18;;;;;;;49.22;20.85;;;;;;;;;;4977401;28;20771;-69
2022/12/02 13:21:44;;;;;;;48.28;21.33;;;;;;;;;;4979061;28;20026;-69
2022/12/02 13:24:09;;;;;;;49.38;20.35;;;;;;;;;;4970970;28;20022;-69
2022/12/02 13:26:34;;;;;;;48.80;20.67;;;;;;;;;;4975091;28;20045;-69
2022/12/02 13:29:00;;;;;;;47.10;21.17;;;;;;;;;;4980378;28;20111;-69
2022/12/02 13:31:25;;;;;;;40.47;18.98;;;;;;;;;;4972798;28;20281;-69
2022/12/02 13:33:50;;;;;;;47.60;20.08;;;;;;;;;;4978639;28;20030;-69
2022/12/02 13:36:15;;;;;;;46.22;21.40;;;;;;;;;;4980741;28;20044;-69
2022/12/02 13:38:40;;;;;;;49.20;19.95;;;;;;;;;;4979926;28;20022;-69
2022/12/02 13:41:06;;;;;;;53.83;23.27;;;;;;;;;;4979872;28;20046;-69
2022/12/02 13:43:31;;;;;;;48.95;21.00;;;;;;;;;;4982827;28;20050;-69
2022/12/02 13:45:56;;;;;;;44.67;19.13;;;;;;;;;;4970027;28;20105;-69
2022/12/02 13:48:21;;;;;;;48.97;21.83;;;;;;;;;;4976307;28;20273;-69
2022/12/02 13:50:46;;;;;;;56.97;23.77;;;;;;;;;;4970144;28;20360;-69
2022/12/02 13:53:12;;;;;;;50.83;21.77;;;;;;;;;;4966011;28;20038;-69
2022/12/02 13:55:37;;;;;;;46.50;20.70;;;;;;;;;;4969905;28;20018;-69
2022/12/02 13:58:02;;;;;;;43.80;19.55;;;;;;;;;;4983974;28;20357;-69
2022/12/02 14:00:27;;;;;;;40.33;19.52;;;;;;;;;;4985664;28;20017;-69
2022/12/02 14:02:52;;;;;;;46.50;20.52;;;;;;;;;;4977551;28;20031;-69
2022/12/02 14:05:18;;;;;;;47.20;21.05;;;;;;;;;;4975683;28;20175;-69
2022/12/02 14:07:43;;;;;;;45.50;19.65;;;;;;;;;;4974421;28;20026;-69
2022/12/02 14:10:08;;;;;;;46.78;20.30;;;;;;;;;;4969447;28;20030;-69
2022/12/02 14:12:33;;;;;;;42.78;19.90;;;;;;;;;;4972181;28;20452;-69
2022/12/02 14:14:59;;;;;;;42.33;19.10;;;;;;;;;;4974689;28;20037;-69